Diretta Meteo Milano-Malpensa, Italiavenerdì 24 maggio ore 12:50

Mappa
Sereno 23 °C Sereno 24 Ore: T.min 10 T.max 24
Ponente Nord Km/h 5.5 Punto di rugiada: 13 °C Umidità: 53% Visibilità: 10 Km
Il sole sorge alle: 05:43 Il sole tramonta alle: 21:00
24 Maggio 2019 12:50 tempo osservato: Sereno Sereno 23 53 1014 vento: Nord N 5.5
24 Maggio 2019 12:20 tempo osservato: Sereno Sereno 22 56 1014 vento: Nord N 5.5
24 Maggio 2019 11:50 tempo osservato: Sereno Sereno 21 60 1014 vento: Nord E 7.4
24 Maggio 2019 11:20 tempo osservato: Sereno Sereno 21 56 1014 vento: Nord N 5.5
24 Maggio 2019 10:50 tempo osservato: Sereno Sereno 20 59 1014 vento: Nord N 5.5
24 Maggio 2019 10:20 tempo osservato: Poco Nuvoloso Poco Nuvoloso 20 64 1015 vento: Nord N 3.7
24 Maggio 2019 09:50 tempo osservato: Poco Nuvoloso Poco Nuvoloso 18 72 1015 vento: Nord N 3.7
24 Maggio 2019 09:20 tempo osservato: Poco Nuvoloso Poco Nuvoloso 17 77 1015 vento: Nord N 3.7
24 Maggio 2019 08:50 tempo osservato: Poco Nuvoloso Poco Nuvoloso 17 77 1015 vento: Nord N 3.7
24 Maggio 2019 08:20 tempo osservato: Poco Nuvoloso Poco Nuvoloso 15 82 1015 vento: Nord N 3.7
24 Maggio 2019 07:50 tempo osservato: Poco Nuvoloso Poco Nuvoloso 15 82 1015 vento: Nord N 3.7
24 Maggio 2019 07:20 tempo osservato: Nuvoloso Nuvoloso 14 87 1014 vento: Nord N 1.8
24 Maggio 2019 06:50 tempo osservato: Nuvoloso Nuvoloso 12 93 1014 vento: Nord N 1.8
24 Maggio 2019 06:20 tempo osservato: Nebbia a Strati Nebbia a Strati 11 93 1014 vento: Nord N 1.8
24 Maggio 2019 05:50 tempo osservato: Nebbia a Strati Nebbia a Strati 11 100 1014 vento: Nord N 1.8
24 Maggio 2019 05:20 tempo osservato: Sereno Sereno 10 93 1014 vento: Nord N 5.5
24 Maggio 2019 04:50 tempo osservato: Sereno Sereno 11 93 1014 vento: Nord N 1.8
24 Maggio 2019 04:20 tempo osservato: Sereno Sereno 11 93 1014 vento: Nord N 3.7
24 Maggio 2019 03:50 tempo osservato: Sereno Sereno 11 93 1014 vento: Nord N 9.3
24 Maggio 2019 03:20 tempo osservato: Sereno Sereno 12 93 1014 vento: Nord N 3.7
24 Maggio 2019 02:50 tempo osservato: Sereno Sereno 13 87 1014 vento: Nord N 3.7
24 Maggio 2019 02:20 tempo osservato: Sereno Sereno 13 87 1014 vento: Nord N 5.5
24 Maggio 2019 01:50 tempo osservato: Sereno Sereno 14 87 1014 vento: Nord N 1.8
24 Maggio 2019 01:20 tempo osservato: Sereno Sereno 15 76 1014 vento: Nord N 3.7
24 Maggio 2019 00:50 tempo osservato: Sereno Sereno 17 72 1014 vento: Nord S/SO 9.3
24 Maggio 2019 00:20 tempo osservato: Sereno Sereno 16 77 1014 vento: Nord S 9.3
23 Maggio 2019 23:50 tempo osservato: Sereno Sereno 18 67 1014 vento: Nord S/SO 11.1
23 Maggio 2019 23:20 tempo osservato: Sereno Sereno 18 67 1014 vento: Nord S/SO 11.1
23 Maggio 2019 22:50 tempo osservato: Sereno Sereno 19 68 1014 vento: Nord S/SO 11.1
23 Maggio 2019 22:20 tempo osservato: Sereno Sereno 19 68 1014 vento: Nord S/SO 11.1
23 Maggio 2019 21:50 tempo osservato: Sereno Sereno 18 67 1013 vento: Nord N 3.7
23 Maggio 2019 21:20 tempo osservato: Sereno Sereno 21 49 1013 vento: Nord N 3.7
23 Maggio 2019 20:50 tempo osservato: Sereno Sereno 22 43 1013 vento: Nord N 5.5
23 Maggio 2019 20:20 tempo osservato: Sereno Sereno 23 40 1013 vento: Nord O/SO 7.4
23 Maggio 2019 19:50 tempo osservato: Sereno Sereno 23 40 1013 vento: Nord SO 9.3
23 Maggio 2019 19:20 tempo osservato: Sereno Sereno 24 41 1013 vento: Nord O 11.1
23 Maggio 2019 18:50 tempo osservato: Sereno Sereno 24 41 1013 vento: Nord O/SO 9.3
23 Maggio 2019 18:20 tempo osservato: Sereno Sereno 24 47 1013 vento: Nord O/SO 14.8
23 Maggio 2019 17:50 tempo osservato: Sereno Sereno 24 43 1013 vento: Nord O/SO 11.1
23 Maggio 2019 17:20 tempo osservato: Sereno Sereno 24 41 1013 vento: Nord N 9.3
23 Maggio 2019 16:50 tempo osservato: Sereno Sereno 24 43 1014 vento: Nord SO 11.1
23 Maggio 2019 16:20 tempo osservato: Sereno Sereno 24 43 1014 vento: Nord SO 11.1
23 Maggio 2019 15:50 tempo osservato: Sereno Sereno 24 43 1014 vento: Nord SO 14.8
23 Maggio 2019 15:20 tempo osservato: Sereno Sereno 23 49 1014 vento: Nord S/SO 14.8
23 Maggio 2019 14:50 tempo osservato: Poco Nuvoloso Poco Nuvoloso 23 49 1015 vento: Nord SO 13
23 Maggio 2019 14:20 tempo osservato: Sereno Sereno 23 49 1015 vento: Nord N 9.3
23 Maggio 2019 13:50 tempo osservato: Poco Nuvoloso Poco Nuvoloso 23 43 1015 vento: Nord N 7.4